createdAt,value
2023-01-29T00:01:57.592Z,10.52
2023-01-29T00:04:24.975Z,11.38
2023-01-29T00:06:52.128Z,10.43
2023-01-29T00:09:19.383Z,10.10
2023-01-29T00:11:46.988Z,10.55
2023-01-29T00:14:14.541Z,10.10
2023-01-29T00:16:41.757Z,10.40
2023-01-29T00:19:08.927Z,10.52
2023-01-29T00:21:36.300Z,9.95
2023-01-29T00:24:03.461Z,10.77
2023-01-29T00:26:31.024Z,9.55
2023-01-29T00:29:00.469Z,10.15
2023-01-29T00:31:27.837Z,10.82
2023-01-29T00:33:55.075Z,8.93
2023-01-29T00:36:22.428Z,9.98
2023-01-29T00:38:58.701Z,9.38
2023-01-29T00:41:48.942Z,9.98
2023-01-29T00:44:35.187Z,9.27
2023-01-29T00:49:30.323Z,9.20
2023-01-29T00:52:16.310Z,9.25
2023-01-29T00:54:43.437Z,9.45
2023-01-29T00:57:10.574Z,8.88
2023-01-29T00:59:37.729Z,9.43
2023-01-29T01:02:23.740Z,8.68
2023-01-29T01:04:50.950Z,9.48
2023-01-29T01:07:18.146Z,9.15
2023-01-29T01:10:04.476Z,9.43
2023-01-29T01:14:58.747Z,9.02
2023-01-29T01:17:25.978Z,9.73
2023-01-29T01:19:53.182Z,9.07
2023-01-29T01:22:20.352Z,8.60
2023-01-29T01:24:47.497Z,8.45
2023-01-29T01:27:15.301Z,8.38
2023-01-29T01:29:42.422Z,8.20
2023-01-29T01:32:09.886Z,8.90
2023-01-29T01:34:37.047Z,8.88
2023-01-29T01:37:04.279Z,8.57
2023-01-29T01:39:31.547Z,8.48
2023-01-29T01:41:58.807Z,7.63
2023-01-29T01:44:44.838Z,8.95
2023-01-29T01:47:11.982Z,7.85
2023-01-29T01:49:39.145Z,8.65
2023-01-29T01:52:06.614Z,8.10
2023-01-29T01:54:33.830Z,7.28
2023-01-29T01:57:11.620Z,8.60
2023-01-29T01:59:39.713Z,8.15
2023-01-29T02:02:26.752Z,8.98
2023-01-29T02:05:12.500Z,7.60
2023-01-29T02:08:02.303Z,7.93
2023-01-29T02:10:31.545Z,7.55
2023-01-29T02:12:58.749Z,7.80
2023-01-29T02:15:25.893Z,8.38
2023-01-29T02:17:53.153Z,7.82
2023-01-29T02:20:24.287Z,7.93
2023-01-29T02:23:10.109Z,7.70
2023-01-29T02:25:56.201Z,7.30
2023-01-29T02:28:27.130Z,8.10
2023-01-29T02:31:01.996Z,7.82
2023-01-29T02:33:41.483Z,7.43
2023-01-29T02:36:15.743Z,8.13
2023-01-29T02:38:45.759Z,7.50
2023-01-29T02:41:15.833Z,7.70
2023-01-29T02:43:45.751Z,7.15
2023-01-29T02:46:12.993Z,7.55
2023-01-29T02:48:48.837Z,7.43
2023-01-29T02:53:54.572Z,7.28
2023-01-29T02:56:24.921Z,7.15
2023-01-29T02:58:55.585Z,7.63
2023-01-29T03:01:34.632Z,7.13
2023-01-29T03:04:05.281Z,6.88
2023-01-29T03:06:39.975Z,6.88
2023-01-29T03:09:23.718Z,6.63
2023-01-29T03:11:53.325Z,7.25
2023-01-29T03:14:26.199Z,6.88
2023-01-29T03:16:54.359Z,7.18
2023-01-29T03:19:25.855Z,7.22
2023-01-29T03:22:01.912Z,7.00
2023-01-29T03:24:56.799Z,6.85
2023-01-29T03:27:44.535Z,6.32
2023-01-29T03:30:31.764Z,7.13
2023-01-29T03:33:00.264Z,6.88
2023-01-29T03:35:38.235Z,6.43
2023-01-29T03:38:07.303Z,6.90
2023-01-29T03:40:36.994Z,6.25
2023-01-29T03:43:11.882Z,6.60
2023-01-29T03:45:56.007Z,6.30
2023-01-29T03:48:29.884Z,7.03
2023-01-29T03:51:23.279Z,6.32
2023-01-29T03:53:50.430Z,6.05
2023-01-29T03:56:26.046Z,6.32
2023-01-29T03:59:12.168Z,6.07
2023-01-29T04:01:42.938Z,5.80
2023-01-29T04:04:17.269Z,6.80
2023-01-29T04:06:46.592Z,6.38
2023-01-29T04:09:22.346Z,6.13
2023-01-29T04:12:04.848Z,6.00
2023-01-29T04:14:32.737Z,5.80
2023-01-29T04:17:02.131Z,6.20
2023-01-29T04:19:29.660Z,5.75
2023-01-29T04:22:02.791Z,6.53
2023-01-29T04:24:30.298Z,6.13
2023-01-29T04:27:06.050Z,6.22
2023-01-29T04:29:41.370Z,5.57
2023-01-29T04:32:11.393Z,5.70
2023-01-29T04:34:41.337Z,5.28
2023-01-29T04:37:23.287Z,5.45
2023-01-29T04:39:55.801Z,5.72
2023-01-29T04:42:25.904Z,6.07
2023-01-29T04:44:59.886Z,5.70
2023-01-29T04:47:39.788Z,5.75
2023-01-29T04:50:15.873Z,5.88
2023-01-29T04:52:48.403Z,5.50
2023-01-29T04:55:26.135Z,5.63
2023-01-29T04:57:55.293Z,6.05
2023-01-29T05:00:30.656Z,5.40
2023-01-29T05:02:58.022Z,5.35
2023-01-29T05:05:25.235Z,5.45
2023-01-29T05:07:52.747Z,5.35
2023-01-29T05:10:20.979Z,5.70
2023-01-29T05:12:50.066Z,5.72
2023-01-29T05:15:19.786Z,4.90
2023-01-29T05:17:46.949Z,5.13
2023-01-29T05:20:14.436Z,5.40
2023-01-29T05:22:42.861Z,5.13
2023-01-29T05:25:21.076Z,5.18
2023-01-29T05:28:14.075Z,4.47
2023-01-29T05:30:41.310Z,4.90
2023-01-29T05:33:19.046Z,4.80
2023-01-29T05:35:46.300Z,5.35
2023-01-29T05:38:13.690Z,5.40
2023-01-29T05:40:40.887Z,5.07
2023-01-29T05:43:15.618Z,5.60
2023-01-29T05:45:42.843Z,5.30
2023-01-29T05:48:09.984Z,5.30
2023-01-29T05:50:37.094Z,5.28
2023-01-29T05:53:05.587Z,4.90
2023-01-29T05:55:32.765Z,4.53
2023-01-29T05:57:59.950Z,4.60
2023-01-29T06:00:27.278Z,5.35
2023-01-29T06:02:54.457Z,5.07
2023-01-29T06:05:21.619Z,4.97
2023-01-29T06:07:48.765Z,4.55
2023-01-29T06:10:17.554Z,4.78
2023-01-29T06:12:45.256Z,4.80
2023-01-29T06:15:15.505Z,5.05
2023-01-29T06:17:43.171Z,4.93
2023-01-29T06:20:12.445Z,4.70
2023-01-29T06:22:39.631Z,5.10
2023-01-29T06:25:07.185Z,4.30
2023-01-29T06:27:34.379Z,4.57
2023-01-29T06:30:01.581Z,4.90
2023-01-29T06:32:28.864Z,4.50
2023-01-29T06:34:55.981Z,5.25
2023-01-29T06:37:23.252Z,4.63
2023-01-29T06:39:50.492Z,4.97
2023-01-29T06:42:18.016Z,4.97
2023-01-29T06:44:45.495Z,5.10
2023-01-29T06:47:12.664Z,4.40
2023-01-29T06:49:39.796Z,4.38
2023-01-29T06:52:06.904Z,4.70
2023-01-29T06:54:34.057Z,4.35
2023-01-29T06:57:01.188Z,4.28
2023-01-29T06:59:28.368Z,4.22
2023-01-29T07:01:55.594Z,4.72
2023-01-29T07:04:22.741Z,4.10
2023-01-29T07:06:49.915Z,4.00
2023-01-29T07:09:17.034Z,4.28
2023-01-29T07:11:44.499Z,4.00
2023-01-29T07:14:11.677Z,3.90
2023-01-29T07:16:38.836Z,4.32
2023-01-29T07:19:06.062Z,4.47
2023-01-29T07:21:33.221Z,4.30
2023-01-29T07:24:00.474Z,3.72
2023-01-29T07:26:27.694Z,4.20
2023-01-29T07:28:54.849Z,3.92
2023-01-29T07:31:22.894Z,3.90
2023-01-29T07:33:50.130Z,4.03
2023-01-29T07:36:17.286Z,3.83
2023-01-29T07:38:44.518Z,3.90
2023-01-29T07:41:12.698Z,3.80
2023-01-29T07:43:39.883Z,4.15
2023-01-29T07:46:07.102Z,4.25
2023-01-29T07:48:34.360Z,4.20
2023-01-29T07:51:01.571Z,4.55
2023-01-29T07:53:29.534Z,3.85
2023-01-29T07:55:57.081Z,4.10
2023-01-29T07:58:24.261Z,4.00
2023-01-29T08:00:51.524Z,4.00
2023-01-29T08:03:22.413Z,3.92
2023-01-29T08:05:49.988Z,4.43
2023-01-29T08:08:17.308Z,4.03
2023-01-29T08:10:44.452Z,4.20
2023-01-29T08:13:11.662Z,3.78
2023-01-29T08:15:39.422Z,4.18
2023-01-29T08:18:06.984Z,3.92
2023-01-29T08:20:34.309Z,3.25
2023-01-29T08:23:02.422Z,3.72
2023-01-29T08:25:30.061Z,4.15
2023-01-29T08:27:58.221Z,3.92
2023-01-29T08:30:29.866Z,3.80
2023-01-29T08:32:57.179Z,4.28
2023-01-29T08:35:24.379Z,4.07
2023-01-29T08:38:01.310Z,3.72
2023-01-29T08:40:29.360Z,5.15
2023-01-29T08:43:02.086Z,4.63
2023-01-29T08:45:30.379Z,4.55
2023-01-29T08:47:57.751Z,4.03
2023-01-29T08:50:25.067Z,4.40
2023-01-29T08:52:52.425Z,4.47
2023-01-29T08:55:19.713Z,5.13
2023-01-29T08:57:46.949Z,4.03
2023-01-29T09:00:15.312Z,3.90
2023-01-29T09:02:42.717Z,4.53
2023-01-29T09:05:10.475Z,4.07
2023-01-29T09:07:37.737Z,4.18
2023-01-29T09:10:05.131Z,4.45
2023-01-29T09:12:32.304Z,4.57
2023-01-29T09:14:59.468Z,4.53
2023-01-29T09:17:26.656Z,4.03
2023-01-29T09:19:53.881Z,3.90
2023-01-29T09:22:21.225Z,3.97
2023-01-29T09:24:48.408Z,4.00
2023-01-29T09:27:15.618Z,3.92
2023-01-29T09:29:42.721Z,3.95
2023-01-29T09:32:09.858Z,4.72
2023-01-29T09:34:36.985Z,4.40
2023-01-29T09:37:04.146Z,3.80
2023-01-29T09:39:31.387Z,3.97
2023-01-29T09:42:07.596Z,4.50
2023-01-29T09:44:58.994Z,4.18
2023-01-29T09:47:27.455Z,3.80
2023-01-29T09:50:05.683Z,3.80
2023-01-29T09:52:37.602Z,3.67
2023-01-29T09:55:10.694Z,4.22
2023-01-29T09:57:44.099Z,3.47
2023-01-29T10:00:15.695Z,4.15
2023-01-29T10:02:50.615Z,3.60
2023-01-29T10:05:23.558Z,3.77
2023-01-29T10:07:59.584Z,3.58
2023-01-29T10:10:26.711Z,3.95
2023-01-29T10:13:11.973Z,3.47
2023-01-29T10:15:43.527Z,3.60
2023-01-29T10:18:29.510Z,3.30
2023-01-29T10:21:15.525Z,3.80
2023-01-29T10:23:47.519Z,3.75
2023-01-29T10:26:14.711Z,4.32
2023-01-29T10:28:50.631Z,3.40
2023-01-29T10:31:28.001Z,3.72
2023-01-29T10:34:02.444Z,3.65
2023-01-29T10:36:33.287Z,3.70
2023-01-29T10:39:00.523Z,3.58
2023-01-29T10:41:32.598Z,3.80
2023-01-29T10:44:20.016Z,3.58
2023-01-29T10:47:01.830Z,3.38
2023-01-29T10:49:31.808Z,3.92
2023-01-29T10:52:11.821Z,3.45
2023-01-29T10:54:44.476Z,4.50
2023-01-29T10:57:29.951Z,25.02
2023-01-29T11:00:07.348Z,52.03
2023-01-29T11:02:34.568Z,42.50
2023-01-29T11:05:01.750Z,45.10
2023-01-29T11:07:31.348Z,46.58
2023-01-29T11:10:03.173Z,43.88
2023-01-29T11:12:31.054Z,43.58
2023-01-29T11:15:01.363Z,43.83
2023-01-29T11:17:28.590Z,40.33
2023-01-29T11:19:56.155Z,36.13
2023-01-29T11:22:24.544Z,39.40
2023-01-29T11:25:08.283Z,36.85
2023-01-29T11:27:40.605Z,33.28
2023-01-29T11:30:15.762Z,35.17
2023-01-29T11:32:43.295Z,33.25
2023-01-29T11:35:13.411Z,30.95
2023-01-29T11:37:42.632Z,31.50
2023-01-29T11:40:30.108Z,30.50
2023-01-29T11:42:58.513Z,30.80
2023-01-29T11:45:34.865Z,29.23
2023-01-29T11:48:02.293Z,29.30
2023-01-29T11:50:31.410Z,28.55
2023-01-29T11:53:02.296Z,29.48
2023-01-29T11:55:48.182Z,29.13
2023-01-29T11:58:18.873Z,27.40
2023-01-29T12:00:48.160Z,29.88
2023-01-29T12:03:18.331Z,25.77
2023-01-29T12:05:54.880Z,27.55
2023-01-29T12:08:23.778Z,25.83
2023-01-29T12:10:51.073Z,27.90
2023-01-29T12:13:25.955Z,26.85
2023-01-29T12:16:07.366Z,23.50
2023-01-29T12:18:40.611Z,23.85
2023-01-29T12:21:21.139Z,20.13
2023-01-29T12:23:53.036Z,22.80
2023-01-29T12:26:30.686Z,29.33
2023-01-29T12:29:13.950Z,34.50
2023-01-29T12:31:50.067Z,35.92
2023-01-29T12:34:36.081Z,36.50
2023-01-29T12:37:18.061Z,35.17
2023-01-29T12:39:45.476Z,33.90
2023-01-29T12:42:19.090Z,33.88
2023-01-29T12:44:48.535Z,34.38
2023-01-29T12:47:21.807Z,32.35
2023-01-29T12:49:52.188Z,32.67
2023-01-29T12:52:22.485Z,33.58
2023-01-29T12:55:01.407Z,31.58
2023-01-29T12:57:36.167Z,30.77
2023-01-29T13:00:06.089Z,31.63
2023-01-29T13:02:36.153Z,30.65
2023-01-29T13:05:21.888Z,31.42
2023-01-29T13:07:51.470Z,29.98
2023-01-29T13:10:20.261Z,30.25
2023-01-29T13:13:13.824Z,32.45
2023-01-29T13:15:42.529Z,30.02
2023-01-29T13:18:29.446Z,29.50
2023-01-29T13:20:57.255Z,30.15
2023-01-29T13:23:29.292Z,30.10
2023-01-29T13:25:56.501Z,30.73
2023-01-29T13:28:26.008Z,29.60
2023-01-29T13:31:11.840Z,29.65
2023-01-29T13:33:39.503Z,28.98
2023-01-29T13:36:11.460Z,27.80
2023-01-29T13:38:38.870Z,28.55
2023-01-29T13:41:08.768Z,25.75
2023-01-29T13:43:40.489Z,25.88
2023-01-29T13:46:21.334Z,24.90
2023-01-29T13:48:50.756Z,25.33
2023-01-29T13:51:22.541Z,24.17
2023-01-29T13:53:57.952Z,23.80
2023-01-29T13:56:34.395Z,22.10
2023-01-29T13:59:02.870Z,22.20
2023-01-29T14:01:50.482Z,21.20
2023-01-29T14:04:26.872Z,20.00
2023-01-29T14:06:55.364Z,19.85
2023-01-29T14:09:32.693Z,19.45
2023-01-29T14:11:59.982Z,19.77
2023-01-29T14:14:45.767Z,18.45
2023-01-29T14:17:13.025Z,19.27
2023-01-29T14:19:47.045Z,18.20
2023-01-29T14:22:24.734Z,18.08
2023-01-29T14:24:55.541Z,17.88
2023-01-29T14:27:25.336Z,18.40
2023-01-29T14:29:57.570Z,17.50
2023-01-29T14:32:26.235Z,16.75
2023-01-29T14:35:11.065Z,16.83
2023-01-29T14:37:42.236Z,16.98
2023-01-29T14:40:12.275Z,17.10
2023-01-29T14:42:44.649Z,16.58
2023-01-29T14:45:31.492Z,16.58
2023-01-29T14:48:03.124Z,16.75
2023-01-29T14:50:33.188Z,16.30
2023-01-29T14:53:11.010Z,15.68
2023-01-29T14:55:40.070Z,14.65
2023-01-29T14:58:07.373Z,15.18
2023-01-29T15:00:37.183Z,14.25
2023-01-29T15:03:12.875Z,15.93
2023-01-29T15:05:40.346Z,14.20
2023-01-29T15:08:09.441Z,14.98
2023-01-29T15:10:45.698Z,15.02
2023-01-29T15:13:25.381Z,14.02
2023-01-29T15:16:05.332Z,14.02
2023-01-29T15:18:35.821Z,14.40
2023-01-29T15:21:05.598Z,12.70
2023-01-29T15:23:34.303Z,13.43
2023-01-29T15:26:03.290Z,13.32
2023-01-29T15:28:32.215Z,14.43
2023-01-29T15:31:00.907Z,12.82
2023-01-29T15:33:29.069Z,14.30
2023-01-29T15:36:08.599Z,13.15
2023-01-29T15:38:36.255Z,14.82
2023-01-29T15:41:05.165Z,13.73
2023-01-29T15:43:35.595Z,13.48
2023-01-29T15:46:05.599Z,13.18
2023-01-29T15:48:37.143Z,12.88
2023-01-29T15:51:07.308Z,13.20
2023-01-29T15:53:39.625Z,11.85
2023-01-29T15:56:09.734Z,13.18
2023-01-29T15:58:36.978Z,12.93
2023-01-29T16:01:04.307Z,12.15
2023-01-29T16:03:33.101Z,12.85
2023-01-29T16:06:00.723Z,11.40
2023-01-29T16:08:28.726Z,11.82
2023-01-29T16:10:57.278Z,12.57
2023-01-29T16:13:44.676Z,12.45
2023-01-29T16:16:28.360Z,12.52
2023-01-29T16:19:00.681Z,12.27
2023-01-29T16:21:36.944Z,12.10
2023-01-29T16:26:34.644Z,11.55
2023-01-29T16:29:05.987Z,11.73
2023-01-29T16:31:33.540Z,11.35
2023-01-29T16:34:06.902Z,11.07
2023-01-29T16:36:34.277Z,11.38
2023-01-29T16:39:04.986Z,11.32
2023-01-29T16:41:33.422Z,10.65
2023-01-29T16:44:29.746Z,11.63
2023-01-29T16:46:56.975Z,11.13
2023-01-29T16:49:30.202Z,11.50
2023-01-29T16:51:57.915Z,10.10
2023-01-29T16:54:25.818Z,9.52
2023-01-29T16:56:54.090Z,10.93
2023-01-29T16:59:29.363Z,10.18
2023-01-29T17:01:56.703Z,11.13
2023-01-29T17:04:23.840Z,9.90
2023-01-29T17:06:54.964Z,9.85
2023-01-29T17:09:26.253Z,10.13
2023-01-29T17:11:58.062Z,10.13
2023-01-29T17:14:26.030Z,9.75
2023-01-29T17:16:57.703Z,10.10
2023-01-29T17:19:25.816Z,10.32
2023-01-29T17:21:54.346Z,9.20
2023-01-29T17:24:21.624Z,10.00
2023-01-29T17:26:49.154Z,9.07
2023-01-29T17:29:20.045Z,9.57
2023-01-29T17:31:47.477Z,9.65
2023-01-29T17:34:15.234Z,9.15
2023-01-29T17:36:43.080Z,8.98
2023-01-29T17:39:20.425Z,9.13
2023-01-29T17:41:50.089Z,9.10
2023-01-29T17:44:17.492Z,9.68
2023-01-29T17:46:44.764Z,8.98
2023-01-29T17:49:28.201Z,8.93
2023-01-29T17:51:56.067Z,8.57
2023-01-29T17:54:24.069Z,8.43
2023-01-29T17:56:51.837Z,8.55
2023-01-29T17:59:18.970Z,8.98
2023-01-29T18:01:46.456Z,8.30
2023-01-29T18:04:14.132Z,8.48
2023-01-29T18:06:41.986Z,8.00
2023-01-29T18:09:10.993Z,7.65
2023-01-29T18:11:38.147Z,7.88
2023-01-29T18:14:14.291Z,8.95
2023-01-29T18:16:43.027Z,8.88
2023-01-29T18:19:14.752Z,10.00
2023-01-29T18:21:42.111Z,8.82
2023-01-29T18:24:09.427Z,9.10
2023-01-29T18:26:36.730Z,10.07
2023-01-29T18:29:04.495Z,11.23
2023-01-29T18:31:31.929Z,10.30
2023-01-29T18:33:59.278Z,10.10
2023-01-29T18:36:26.482Z,10.13
2023-01-29T18:38:53.809Z,10.43
2023-01-29T18:41:20.986Z,10.23
2023-01-29T18:43:48.102Z,8.93
2023-01-29T18:46:15.399Z,10.48
2023-01-29T18:48:43.009Z,9.82
2023-01-29T18:51:10.413Z,9.95
2023-01-29T18:53:37.584Z,9.52
2023-01-29T18:56:06.780Z,9.52
2023-01-29T18:58:36.904Z,9.68
2023-01-29T19:01:10.042Z,9.68
2023-01-29T19:03:37.838Z,9.02
2023-01-29T19:06:06.326Z,9.75
2023-01-29T19:08:33.516Z,9.45
2023-01-29T19:11:02.440Z,9.90
2023-01-29T19:13:30.254Z,10.95
2023-01-29T19:15:57.693Z,9.57
2023-01-29T19:18:27.971Z,10.73
2023-01-29T19:20:55.603Z,9.32
2023-01-29T19:23:22.814Z,9.88
2023-01-29T19:25:50.028Z,10.23
2023-01-29T19:28:17.196Z,9.98
2023-01-29T19:30:44.421Z,9.90
2023-01-29T19:33:11.672Z,9.55
2023-01-29T19:35:38.869Z,9.52
2023-01-29T19:38:06.611Z,9.48
2023-01-29T19:40:34.089Z,9.63
2023-01-29T19:43:01.508Z,9.07
2023-01-29T19:45:49.280Z,9.57
2023-01-29T19:48:20.349Z,15.48
2023-01-29T19:50:57.737Z,11.57
2023-01-29T19:53:25.056Z,12.20
2023-01-29T19:55:59.390Z,12.38
2023-01-29T19:58:26.941Z,12.18
2023-01-29T20:00:57.822Z,12.25
2023-01-29T20:03:25.831Z,11.65
2023-01-29T20:05:53.221Z,13.30
2023-01-29T20:08:20.626Z,12.10
2023-01-29T20:10:48.976Z,11.82
2023-01-29T20:13:16.521Z,10.82
2023-01-29T20:15:47.662Z,10.57
2023-01-29T20:18:15.255Z,10.52
2023-01-29T20:20:43.227Z,10.63
2023-01-29T20:23:10.897Z,10.93
2023-01-29T20:25:38.111Z,10.88
2023-01-29T20:28:09.366Z,11.32
2023-01-29T20:30:36.712Z,10.45
2023-01-29T20:33:04.520Z,10.45
2023-01-29T20:35:32.539Z,10.75
2023-01-29T20:37:59.782Z,9.82
2023-01-29T20:40:26.993Z,10.00
2023-01-29T20:42:54.121Z,9.98
2023-01-29T20:45:22.003Z,11.15
2023-01-29T20:47:49.564Z,10.48
2023-01-29T20:50:18.927Z,9.90
2023-01-29T20:52:49.207Z,9.55
2023-01-29T20:55:16.619Z,9.68
2023-01-29T20:57:43.839Z,9.40
2023-01-29T21:00:31.004Z,9.43
2023-01-29T21:02:58.171Z,8.73
2023-01-29T21:05:25.338Z,10.05
2023-01-29T21:07:52.495Z,9.15
2023-01-29T21:10:19.956Z,9.25
2023-01-29T21:12:47.190Z,8.45
2023-01-29T21:15:14.576Z,9.07
2023-01-29T21:17:41.802Z,8.90
2023-01-29T21:20:11.360Z,8.98
2023-01-29T21:22:39.027Z,8.38
2023-01-29T21:25:06.357Z,8.93
2023-01-29T21:27:33.515Z,8.43
2023-01-29T21:30:01.017Z,8.40
2023-01-29T21:32:28.276Z,8.15
2023-01-29T21:34:55.471Z,8.80
2023-01-29T21:37:22.680Z,8.80
2023-01-29T21:39:49.824Z,9.32
2023-01-29T21:42:35.504Z,9.18
2023-01-29T21:45:02.645Z,9.25
2023-01-29T21:47:29.756Z,10.07
2023-01-29T21:49:56.913Z,9.40
2023-01-29T21:52:24.026Z,9.30
2023-01-29T21:54:51.376Z,9.30
2023-01-29T21:57:18.642Z,8.05
2023-01-29T21:59:47.371Z,8.50
2023-01-29T22:02:21.109Z,8.27
2023-01-29T22:04:48.360Z,8.93
2023-01-29T22:07:15.531Z,9.27
2023-01-29T22:09:42.730Z,7.65
2023-01-29T22:12:10.210Z,8.95
2023-01-29T22:14:37.371Z,8.52
2023-01-29T22:17:05.900Z,9.27
2023-01-29T22:19:33.507Z,8.75
2023-01-29T22:22:00.976Z,8.88
2023-01-29T22:24:28.140Z,9.65
2023-01-29T22:26:55.368Z,9.20
2023-01-29T22:29:22.754Z,7.32
2023-01-29T22:31:49.945Z,8.52
2023-01-29T22:34:17.129Z,8.93
2023-01-29T22:36:44.271Z,7.47
2023-01-29T22:39:11.710Z,8.30
2023-01-29T22:41:38.946Z,9.27
2023-01-29T22:44:06.057Z,8.80
2023-01-29T22:46:33.226Z,8.55
2023-01-29T22:49:00.397Z,9.18
2023-01-29T22:51:27.717Z,8.27
2023-01-29T22:53:55.975Z,9.05
2023-01-29T22:56:27.256Z,9.05
2023-01-29T22:58:58.627Z,8.82
2023-01-29T23:01:27.393Z,8.25
2023-01-29T23:03:54.582Z,8.20
2023-01-29T23:06:22.007Z,8.57
2023-01-29T23:08:49.450Z,8.43
2023-01-29T23:11:18.686Z,8.02
2023-01-29T23:13:47.380Z,7.72
2023-01-29T23:16:15.237Z,8.23
2023-01-29T23:18:43.030Z,8.25
2023-01-29T23:21:10.266Z,7.93
2023-01-29T23:23:37.953Z,8.65
2023-01-29T23:26:25.617Z,8.77
2023-01-29T23:28:52.915Z,8.38
2023-01-29T23:31:20.171Z,7.20
2023-01-29T23:33:47.444Z,8.18
2023-01-29T23:36:14.969Z,8.27
2023-01-29T23:38:42.180Z,7.90
2023-01-29T23:41:09.287Z,7.30
2023-01-29T23:43:36.443Z,7.05
2023-01-29T23:46:03.623Z,7.80
2023-01-29T23:48:30.872Z,8.05
2023-01-29T23:50:58.047Z,7.55
2023-01-29T23:53:25.331Z,7.45
2023-01-29T23:56:02.874Z,8.02
2023-01-29T23:58:30.523Z,7.25
